createdAt,value
2023-09-03T00:00:43.385Z,102023.46
2023-09-03T00:02:06.602Z,102022.34
2023-09-03T00:03:10.175Z,102020.73
2023-09-03T00:04:13.547Z,102020.60
2023-09-03T00:05:16.521Z,102023.52
2023-09-03T00:06:19.652Z,102022.30
2023-09-03T00:07:22.660Z,102024.71
2023-09-03T00:08:26.045Z,102024.55
2023-09-03T00:09:29.050Z,102023.85
2023-09-03T00:10:36.673Z,102023.23
2023-09-03T00:11:40.104Z,102020.79
2023-09-03T00:12:43.142Z,102022.77
2023-09-03T00:13:46.148Z,102022.92
2023-09-03T00:14:49.130Z,102022.80
2023-09-03T00:15:52.122Z,102021.47
2023-09-03T00:16:55.219Z,102019.89
2023-09-03T00:17:58.919Z,102020.14
2023-09-03T00:19:02.000Z,102018.56
2023-09-03T00:20:05.910Z,102020.19
2023-09-03T00:21:09.016Z,102017.86
2023-09-03T00:22:12.142Z,102018.72
2023-09-03T00:23:15.273Z,102017.89
2023-09-03T00:24:18.776Z,102013.81
2023-09-03T00:25:22.528Z,102015.81
2023-09-03T00:26:27.779Z,102014.14
2023-09-03T00:27:33.651Z,102010.45
2023-09-03T00:28:36.664Z,102012.16
2023-09-03T00:29:41.870Z,102014.60
2023-09-03T00:30:45.081Z,102011.83
2023-09-03T00:31:48.016Z,102013.36
2023-09-03T00:32:51.306Z,102013.36
2023-09-03T00:33:54.864Z,102011.29
2023-09-03T00:34:57.802Z,102013.64
2023-09-03T00:36:02.655Z,102010.15
2023-09-03T00:37:06.336Z,102009.14
2023-09-03T00:38:09.764Z,102009.02
2023-09-03T00:39:13.429Z,102008.52
2023-09-03T00:40:16.567Z,102007.52
2023-09-03T00:41:19.740Z,102007.57
2023-09-03T00:42:22.938Z,102008.52
2023-09-03T00:43:26.009Z,102013.05
2023-09-03T00:44:29.015Z,102011.81
2023-09-03T00:45:32.564Z,102013.23
2023-09-03T00:46:35.788Z,102011.20
2023-09-03T00:47:39.572Z,102015.91
2023-09-03T00:48:43.821Z,102009.05
2023-09-03T00:49:47.028Z,102011.14
2023-09-03T00:50:52.664Z,102008.89
2023-09-03T00:51:57.214Z,102007.64
2023-09-03T00:53:00.305Z,102006.17
2023-09-03T00:54:04.836Z,102004.57
2023-09-03T00:55:08.158Z,102005.49
2023-09-03T00:56:12.000Z,102005.71
2023-09-03T00:57:15.176Z,102004.46
2023-09-03T00:58:20.027Z,102004.30
2023-09-03T00:59:25.185Z,102001.80
2023-09-03T01:00:29.167Z,102001.90
2023-09-03T01:01:32.299Z,102000.06
2023-09-03T01:02:36.340Z,101997.70
2023-09-03T01:03:40.275Z,101997.65
2023-09-03T01:04:43.321Z,101995.77
2023-09-03T01:05:46.281Z,101993.17
2023-09-03T01:06:51.163Z,101992.48
2023-09-03T01:07:55.122Z,101992.77
2023-09-03T01:08:57.997Z,101990.38
2023-09-03T01:10:02.390Z,101989.64
2023-09-03T01:11:11.313Z,101986.36
2023-09-03T01:12:26.182Z,101988.60
2023-09-03T01:13:40.188Z,101984.23
2023-09-03T01:15:14.418Z,101980.66
2023-09-03T01:16:29.235Z,101982.03
2023-09-03T01:17:47.662Z,101977.33
2023-09-03T01:18:52.520Z,101976.50
2023-09-03T01:19:58.430Z,101975.67
2023-09-03T01:21:35.677Z,101978.17
2023-09-03T01:23:00.824Z,101975.77
2023-09-03T01:24:41.781Z,101974.38
2023-09-03T01:25:50.888Z,101979.04
2023-09-03T01:26:57.237Z,101977.26
2023-09-03T01:28:24.178Z,101978.70
2023-09-03T01:29:28.384Z,101975.92
2023-09-03T01:30:32.120Z,101971.15
2023-09-03T01:33:02.477Z,101973.67
2023-09-03T01:34:06.377Z,101976.73
2023-09-03T01:35:10.214Z,101978.36
2023-09-03T01:36:15.256Z,101972.09
2023-09-03T01:37:18.614Z,101976.95
2023-09-03T01:38:22.481Z,101977.67
2023-09-03T01:39:26.531Z,101979.95
2023-09-03T01:40:29.519Z,101981.45
2023-09-03T01:41:38.811Z,101982.40
2023-09-03T01:42:43.466Z,101986.02
2023-09-03T01:43:46.635Z,101984.02
2023-09-03T01:44:49.769Z,101985.81
2023-09-03T01:46:02.154Z,101986.27
2023-09-03T01:47:16.276Z,101985.81
2023-09-03T01:48:44.905Z,101990.35
2023-09-03T01:50:02.425Z,101988.80
2023-09-03T01:51:35.090Z,101992.09
2023-09-03T01:53:06.078Z,101990.35
2023-09-03T01:54:20.417Z,101989.89
2023-09-03T01:55:26.641Z,101986.90
2023-09-03T01:56:33.845Z,101987.64
2023-09-03T01:58:00.857Z,101989.02
2023-09-03T01:59:10.678Z,101993.38
2023-09-03T02:00:17.092Z,101994.21
2023-09-03T02:01:24.798Z,101991.30
2023-09-03T02:02:29.820Z,101998.45
2023-09-03T02:03:34.139Z,101993.59
2023-09-03T02:04:37.304Z,101996.08
2023-09-03T02:05:40.341Z,101997.13
2023-09-03T02:06:47.915Z,101996.92
2023-09-03T02:07:50.880Z,101997.08
2023-09-03T02:08:54.025Z,101994.67
2023-09-03T02:09:57.499Z,101993.80
2023-09-03T02:11:00.638Z,101994.61
2023-09-03T02:12:06.675Z,101993.30
2023-09-03T02:13:09.663Z,101996.16
2023-09-03T02:14:12.663Z,101994.88
2023-09-03T02:15:16.215Z,101998.81
2023-09-03T02:16:19.254Z,101995.52
2023-09-03T02:17:22.453Z,102002.49
2023-09-03T02:18:25.407Z,101994.60
2023-09-03T02:19:28.568Z,101997.42
2023-09-03T02:20:31.564Z,101995.98
2023-09-03T02:21:34.659Z,101995.34
2023-09-03T02:22:37.888Z,101997.42
2023-09-03T02:23:40.834Z,101996.18
2023-09-03T02:24:44.123Z,101995.98
2023-09-03T02:25:47.273Z,101997.77
2023-09-03T02:26:50.302Z,102000.05
2023-09-03T02:27:53.414Z,101999.96
2023-09-03T02:28:56.918Z,102003.13
2023-09-03T02:29:59.910Z,102003.67
2023-09-03T02:31:04.050Z,102007.07
2023-09-03T02:32:07.546Z,102004.46
2023-09-03T02:33:10.985Z,102002.46
2023-09-03T02:34:15.013Z,102000.75
2023-09-03T02:35:18.438Z,101999.42
2023-09-03T02:36:21.369Z,102001.55
2023-09-03T02:37:24.401Z,102006.08
2023-09-03T02:38:27.873Z,102001.88
2023-09-03T02:39:30.934Z,102003.38
2023-09-03T02:40:33.910Z,101999.85
2023-09-03T02:41:36.907Z,102003.54
2023-09-03T02:42:39.875Z,102004.05
2023-09-03T02:43:42.910Z,102003.66
2023-09-03T02:44:45.890Z,102007.16
2023-09-03T02:45:49.195Z,102005.46
2023-09-03T02:46:53.527Z,102006.12
2023-09-03T02:47:56.529Z,102005.41
2023-09-03T02:48:59.840Z,102008.40
2023-09-03T02:50:03.150Z,102006.61
2023-09-03T02:51:06.155Z,102008.08
2023-09-03T02:52:09.100Z,102004.21
2023-09-03T02:53:12.058Z,102009.23
2023-09-03T02:54:15.135Z,102010.06
2023-09-03T02:55:17.940Z,102014.44
2023-09-03T02:56:20.963Z,102013.85
2023-09-03T02:57:23.915Z,102018.89
2023-09-03T02:58:26.817Z,102017.69
2023-09-03T02:59:30.285Z,102014.63
2023-09-03T03:00:34.861Z,102014.52
2023-09-03T03:01:37.938Z,102016.34
2023-09-03T03:02:42.669Z,102013.43
2023-09-03T03:03:46.152Z,102011.89
2023-09-03T03:04:49.198Z,102010.98
2023-09-03T03:05:54.909Z,102013.93
2023-09-03T03:06:57.850Z,102015.02
2023-09-03T03:08:04.050Z,102014.70
2023-09-03T03:09:07.856Z,102014.70
2023-09-03T03:10:11.662Z,102015.04
2023-09-03T03:11:16.936Z,102016.99
2023-09-03T03:12:25.521Z,102017.37
2023-09-03T03:13:28.407Z,102016.69
2023-09-03T03:14:31.413Z,102016.36
2023-09-03T03:15:36.592Z,102017.61
2023-09-03T03:16:39.675Z,102015.92
2023-09-03T03:17:47.131Z,102017.47
2023-09-03T03:18:51.779Z,102015.92
2023-09-03T03:19:55.829Z,102017.77
2023-09-03T03:21:06.654Z,102017.05
2023-09-03T03:22:09.616Z,102015.61
2023-09-03T03:23:12.566Z,102017.18
2023-09-03T03:24:15.505Z,102017.14
2023-09-03T03:25:19.427Z,102014.44
2023-09-03T03:26:22.391Z,102021.63
2023-09-03T03:27:25.546Z,102020.00
2023-09-03T03:28:30.753Z,102019.34
2023-09-03T03:29:33.755Z,102021.75
2023-09-03T03:30:36.714Z,102019.67
2023-09-03T03:31:39.758Z,102018.75
2023-09-03T03:32:42.773Z,102017.14
2023-09-03T03:33:47.651Z,102018.75
2023-09-03T03:34:51.599Z,102016.80
2023-09-03T03:35:54.871Z,102017.42
2023-09-03T03:36:58.096Z,102018.66
2023-09-03T03:38:01.015Z,102017.11
2023-09-03T03:39:04.042Z,102012.04
2023-09-03T03:40:07.735Z,102016.28
2023-09-03T03:41:16.501Z,102018.31
2023-09-03T03:42:19.944Z,102013.00
2023-09-03T03:43:23.208Z,102013.23
2023-09-03T03:44:26.195Z,102014.41
2023-09-03T03:45:29.270Z,102011.83
2023-09-03T03:46:32.228Z,102014.41
2023-09-03T03:47:35.279Z,102012.95
2023-09-03T03:48:38.206Z,102010.84
2023-09-03T03:49:41.174Z,102011.04
2023-09-03T03:50:44.052Z,102015.33
2023-09-03T03:51:46.916Z,102015.77
2023-09-03T03:52:49.948Z,102014.83
2023-09-03T03:53:52.895Z,102014.58
2023-09-03T03:54:56.166Z,102016.20
2023-09-03T03:56:10.779Z,102017.52
2023-09-03T03:57:13.910Z,102017.07
2023-09-03T03:58:16.973Z,102020.73
2023-09-03T03:59:19.877Z,102015.69
2023-09-03T04:00:22.868Z,102017.95
2023-09-03T04:01:25.931Z,102016.94
2023-09-03T04:02:30.181Z,102020.41
2023-09-03T04:03:33.178Z,102020.78
2023-09-03T04:04:36.172Z,102018.91
2023-09-03T04:05:39.061Z,102019.58
2023-09-03T04:06:41.898Z,102019.61
2023-09-03T04:07:44.927Z,102021.61
2023-09-03T04:08:48.395Z,102022.15
2023-09-03T04:09:51.372Z,102021.65
2023-09-03T04:11:21.701Z,102022.65
2023-09-03T04:12:24.625Z,102024.74
2023-09-03T04:13:28.647Z,102027.49
2023-09-03T04:14:31.598Z,102025.06
2023-09-03T04:15:38.512Z,102024.36
2023-09-03T04:16:41.556Z,102022.11
2023-09-03T04:17:44.511Z,102025.31
2023-09-03T04:18:47.991Z,102022.61
2023-09-03T04:19:51.603Z,102020.23
2023-09-03T04:20:57.004Z,102022.27
2023-09-03T04:22:01.163Z,102020.41
2023-09-03T04:23:04.975Z,102023.65
2023-09-03T04:24:09.513Z,102022.02
2023-09-03T04:25:13.095Z,102025.05
2023-09-03T04:26:16.260Z,102028.02
2023-09-03T04:27:23.810Z,102024.11
2023-09-03T04:28:27.545Z,102027.39
2023-09-03T04:29:30.348Z,102028.93
2023-09-03T04:30:36.271Z,102027.77
2023-09-03T04:31:41.558Z,102026.02
2023-09-03T04:32:44.539Z,102027.64
2023-09-03T04:33:47.679Z,102026.76
2023-09-03T04:34:52.913Z,102028.69
2023-09-03T04:36:02.243Z,102026.95
2023-09-03T04:37:07.554Z,102029.31
2023-09-03T04:38:11.024Z,102027.61
2023-09-03T04:39:13.926Z,102031.27
2023-09-03T04:40:18.245Z,102030.23
2023-09-03T04:41:22.200Z,102026.17
2023-09-03T04:42:28.224Z,102026.08
2023-09-03T04:43:31.227Z,102024.25
2023-09-03T04:44:34.638Z,102028.08
2023-09-03T04:45:38.405Z,102029.92
2023-09-03T04:46:42.044Z,102031.82
2023-09-03T04:47:45.349Z,102032.92
2023-09-03T04:48:49.189Z,102025.72
2023-09-03T04:49:52.214Z,102026.31
2023-09-03T04:50:55.217Z,102028.55
2023-09-03T04:51:58.494Z,102024.52
2023-09-03T04:53:01.334Z,102028.19
2023-09-03T04:54:04.343Z,102029.68
2023-09-03T04:55:07.618Z,102030.17
2023-09-03T04:56:13.966Z,102026.98
2023-09-03T04:57:19.280Z,102024.81
2023-09-03T04:58:22.291Z,102025.61
2023-09-03T04:59:25.590Z,102029.38
2023-09-03T05:00:29.425Z,102027.90
2023-09-03T05:01:35.168Z,102027.36
2023-09-03T05:02:38.961Z,102025.06
2023-09-03T05:03:42.090Z,102026.65
2023-09-03T05:04:45.705Z,102025.74
2023-09-03T05:05:48.642Z,102025.38
2023-09-03T05:06:51.557Z,102025.08
2023-09-03T05:07:57.408Z,102027.33
2023-09-03T05:09:00.689Z,102024.81
2023-09-03T05:10:14.844Z,102026.36
2023-09-03T05:11:18.507Z,102030.05
2023-09-03T05:12:23.497Z,102027.84
2023-09-03T05:13:26.567Z,102027.91
2023-09-03T05:14:29.459Z,102036.33
2023-09-03T05:15:34.326Z,102038.09
2023-09-03T05:16:38.397Z,102039.02
2023-09-03T05:17:41.908Z,102039.30
2023-09-03T05:18:45.261Z,102039.23
2023-09-03T05:19:49.566Z,102041.73
2023-09-03T05:20:52.525Z,102040.11
2023-09-03T05:21:56.790Z,102043.45
2023-09-03T05:22:59.783Z,102041.71
2023-09-03T05:24:04.126Z,102046.83
2023-09-03T05:25:08.275Z,102046.89
2023-09-03T05:26:11.463Z,102049.06
2023-09-03T05:27:16.664Z,102047.80
2023-09-03T05:28:19.841Z,102048.46
2023-09-03T05:29:22.957Z,102051.27
2023-09-03T05:30:27.157Z,102050.77
2023-09-03T05:31:31.902Z,102053.56
2023-09-03T05:32:35.389Z,102055.52
2023-09-03T05:33:39.145Z,102056.70
2023-09-03T05:34:42.093Z,102060.36
2023-09-03T05:35:45.131Z,102061.31
2023-09-03T05:36:48.684Z,102060.90
2023-09-03T05:37:52.848Z,102067.63
2023-09-03T05:38:55.892Z,102066.09
2023-09-03T05:39:59.286Z,102068.36
2023-09-03T05:41:03.665Z,102073.41
2023-09-03T05:42:06.637Z,102069.14
2023-09-03T05:43:09.542Z,102067.91
2023-09-03T05:44:13.522Z,102065.55
2023-09-03T05:45:17.013Z,102064.95
2023-09-03T05:46:20.412Z,102068.89
2023-09-03T05:47:23.901Z,102064.52
2023-09-03T05:48:26.842Z,102067.75
2023-09-03T05:49:32.302Z,102069.27
2023-09-03T05:50:35.242Z,102071.23
2023-09-03T05:51:38.910Z,102068.84
2023-09-03T05:52:43.834Z,102071.45
2023-09-03T05:53:46.916Z,102072.75
2023-09-03T05:54:49.867Z,102066.47
2023-09-03T05:55:52.842Z,102069.03
2023-09-03T05:56:55.855Z,102071.15
2023-09-03T05:57:59.481Z,102068.43
2023-09-03T05:59:06.954Z,102066.98
2023-09-03T06:00:11.156Z,102073.24
2023-09-03T06:01:25.210Z,102065.35
2023-09-03T06:02:28.135Z,102066.40
2023-09-03T06:03:31.237Z,102064.23
2023-09-03T06:04:34.648Z,102064.95
2023-09-03T06:05:37.574Z,102064.80
2023-09-03T06:06:41.047Z,102064.73
2023-09-03T06:07:44.085Z,102060.71
2023-09-03T06:08:47.160Z,102062.86
2023-09-03T06:09:50.043Z,102060.25
2023-09-03T06:10:57.364Z,102057.25
2023-09-03T06:12:00.452Z,102057.73
2023-09-03T06:13:03.604Z,102058.20
2023-09-03T06:14:06.638Z,102057.37
2023-09-03T06:15:09.710Z,102055.19
2023-09-03T06:16:12.622Z,102051.45
2023-09-03T06:17:16.220Z,102047.65
2023-09-03T06:18:19.655Z,102049.19
2023-09-03T06:19:23.680Z,102047.34
2023-09-03T06:20:26.695Z,102056.71
2023-09-03T06:21:30.472Z,102056.45
2023-09-03T06:22:33.482Z,102055.25
2023-09-03T06:23:36.320Z,102057.76
2023-09-03T06:24:39.372Z,102061.14
2023-09-03T06:25:43.260Z,102057.64
2023-09-03T06:26:46.458Z,102061.36
2023-09-03T06:27:49.484Z,102064.66
2023-09-03T06:28:52.380Z,102061.71
2023-09-03T06:29:55.277Z,102060.34
2023-09-03T06:31:00.216Z,102059.11
2023-09-03T06:32:03.432Z,102062.33
2023-09-03T06:33:06.719Z,102061.57
2023-09-03T06:34:09.713Z,102061.23
2023-09-03T06:35:12.603Z,102063.39
2023-09-03T06:36:16.413Z,102056.36
2023-09-03T06:37:19.544Z,102057.59
2023-09-03T06:38:22.702Z,102058.70
2023-09-03T06:39:27.580Z,102061.20
2023-09-03T06:40:30.539Z,102066.22
2023-09-03T06:41:33.428Z,102064.77
2023-09-03T06:42:37.096Z,102063.87
2023-09-03T06:43:40.104Z,102067.77
2023-09-03T06:44:42.980Z,102065.31
2023-09-03T06:45:45.966Z,102067.84
2023-09-03T06:46:48.866Z,102066.06
2023-09-03T06:47:51.880Z,102065.14
2023-09-03T06:48:55.534Z,102066.48
2023-09-03T06:49:58.536Z,102069.02
2023-09-03T06:51:01.450Z,102070.02
2023-09-03T06:52:04.697Z,102071.81
2023-09-03T06:53:07.585Z,102070.31
2023-09-03T06:54:14.612Z,102074.30
2023-09-03T06:55:19.279Z,102069.58
2023-09-03T06:56:22.656Z,102077.05
2023-09-03T06:57:29.521Z,102074.73
2023-09-03T06:58:32.765Z,102077.80
2023-09-03T06:59:35.885Z,102072.90
2023-09-03T07:00:38.894Z,102074.30
2023-09-03T07:01:41.931Z,102072.17
2023-09-03T07:02:44.974Z,102070.80
2023-09-03T07:03:47.957Z,102074.14
2023-09-03T07:04:51.247Z,102074.77
2023-09-03T07:05:54.675Z,102072.15
2023-09-03T07:07:00.276Z,102074.55
2023-09-03T07:08:06.313Z,102071.48
2023-09-03T07:09:11.982Z,102076.14
2023-09-03T07:10:14.963Z,102074.51
2023-09-03T07:11:17.838Z,102076.52
2023-09-03T07:12:20.870Z,102075.48
2023-09-03T07:13:23.739Z,102073.59
2023-09-03T07:14:26.658Z,102074.29
2023-09-03T07:15:29.636Z,102074.57
2023-09-03T07:16:33.915Z,102074.15
2023-09-03T07:17:36.813Z,102076.87
2023-09-03T07:18:39.819Z,102080.00
2023-09-03T07:19:43.026Z,102078.21
2023-09-03T07:20:45.950Z,102080.20
2023-09-03T07:21:48.999Z,102077.97
2023-09-03T07:22:52.153Z,102082.96
2023-09-03T07:23:55.232Z,102082.33
2023-09-03T07:24:58.305Z,102079.77
2023-09-03T07:26:12.243Z,102077.02
2023-09-03T07:27:15.239Z,102079.82
2023-09-03T07:28:18.160Z,102077.90
2023-09-03T07:29:21.356Z,102077.52
2023-09-03T07:30:24.396Z,102078.61
2023-09-03T07:31:27.243Z,102074.73
2023-09-03T07:32:30.250Z,102078.36
2023-09-03T07:33:33.727Z,102080.75
2023-09-03T07:34:36.696Z,102080.63
2023-09-03T07:35:39.602Z,102085.31
2023-09-03T07:36:43.391Z,102091.29
2023-09-03T07:37:46.499Z,102091.48
2023-09-03T07:38:49.380Z,102089.16
2023-09-03T07:39:52.328Z,102088.00
2023-09-03T07:40:55.237Z,102093.92
2023-09-03T07:41:58.282Z,102094.64
2023-09-03T07:43:01.131Z,102100.04
2023-09-03T07:44:04.777Z,102098.81
2023-09-03T07:45:08.453Z,102103.83
2023-09-03T07:46:11.442Z,102104.17
2023-09-03T07:47:14.516Z,102109.34
2023-09-03T07:48:18.401Z,102112.81
2023-09-03T07:49:21.935Z,102112.27
2023-09-03T07:50:25.562Z,102112.80
2023-09-03T07:51:29.135Z,102115.47
2023-09-03T07:52:33.633Z,102119.01
2023-09-03T07:53:37.913Z,102116.92
2023-09-03T07:54:41.928Z,102114.85
2023-09-03T07:55:46.232Z,102116.00
2023-09-03T07:56:51.141Z,102113.66
2023-09-03T07:58:00.255Z,102116.76
2023-09-03T07:59:04.233Z,102117.35
2023-09-03T08:00:09.888Z,102121.17
2023-09-03T08:01:20.711Z,102120.17
2023-09-03T08:02:24.469Z,102124.83
2023-09-03T08:03:33.714Z,102121.86
2023-09-03T08:04:36.681Z,102120.95
2023-09-03T08:05:39.644Z,102124.83
2023-09-03T08:06:42.810Z,102122.24
2023-09-03T08:07:46.902Z,102132.73
2023-09-03T08:08:54.735Z,102134.45
2023-09-03T08:09:57.866Z,102128.34
2023-09-03T08:11:01.093Z,102131.06
2023-09-03T08:12:04.239Z,102131.33
2023-09-03T08:13:07.257Z,102132.82
2023-09-03T08:14:10.204Z,102129.08
2023-09-03T08:15:14.555Z,102129.06
2023-09-03T08:16:17.450Z,102131.19
2023-09-03T08:17:21.810Z,102130.58
2023-09-03T08:18:24.685Z,102125.69
2023-09-03T08:19:27.770Z,102128.63
2023-09-03T08:20:30.808Z,102129.09
2023-09-03T08:21:33.641Z,102130.77
2023-09-03T08:22:36.735Z,102133.31
2023-09-03T08:23:41.772Z,102134.69
2023-09-03T08:24:44.603Z,102134.98
2023-09-03T08:25:47.740Z,102138.85
2023-09-03T08:26:50.573Z,102136.53
2023-09-03T08:27:53.532Z,102132.67
2023-09-03T08:28:56.444Z,102133.66
2023-09-03T08:30:00.269Z,102137.52
2023-09-03T08:31:04.069Z,102137.34
2023-09-03T08:32:07.533Z,102136.52
2023-09-03T08:33:11.652Z,102138.09
2023-09-03T08:34:15.281Z,102138.66
2023-09-03T08:35:18.298Z,102135.23
2023-09-03T08:36:23.010Z,102136.52
2023-09-03T08:37:27.945Z,102134.27
2023-09-03T08:38:31.028Z,102137.34
2023-09-03T08:39:33.905Z,102137.58
2023-09-03T08:40:37.812Z,102141.46
2023-09-03T08:41:41.522Z,102138.98
2023-09-03T08:42:47.919Z,102143.33
2023-09-03T08:43:56.173Z,102142.89
2023-09-03T08:45:05.846Z,102144.01
2023-09-03T08:46:11.689Z,102144.08
2023-09-03T08:47:18.126Z,102138.07
2023-09-03T08:48:21.076Z,102139.98
2023-09-03T08:49:24.216Z,102141.30
2023-09-03T08:50:27.811Z,102130.93
2023-09-03T08:51:32.931Z,102127.14
2023-09-03T08:52:38.359Z,102129.64
2023-09-03T08:53:41.944Z,102126.17
2023-09-03T08:54:44.992Z,102118.49
2023-09-03T08:55:47.919Z,102116.14
2023-09-03T08:56:50.846Z,102113.23
2023-09-03T08:57:55.456Z,102115.22
2023-09-03T08:58:58.602Z,102114.42
2023-09-03T09:00:08.873Z,102115.33
2023-09-03T09:01:14.577Z,102119.58
2023-09-03T09:02:18.540Z,102120.00
2023-09-03T09:03:26.684Z,102113.95
2023-09-03T09:04:31.499Z,102115.54
2023-09-03T09:05:37.062Z,102114.61
2023-09-03T09:06:44.925Z,102114.92
2023-09-03T09:07:49.460Z,102115.23
2023-09-03T09:08:53.308Z,102116.77
2023-09-03T09:10:00.031Z,102112.80
2023-09-03T09:11:11.467Z,102108.17
2023-09-03T09:12:23.490Z,102110.14
2023-09-03T09:13:28.078Z,102105.70
2023-09-03T09:15:01.203Z,102107.40
2023-09-03T09:16:04.419Z,102110.88
2023-09-03T09:17:14.274Z,102108.77
2023-09-03T09:18:17.351Z,102107.73
2023-09-03T09:19:20.708Z,102107.45
2023-09-03T09:20:23.955Z,102111.48
2023-09-03T09:21:26.990Z,102108.14
2023-09-03T09:22:29.931Z,102110.48
2023-09-03T09:23:32.995Z,102106.77
2023-09-03T09:24:45.581Z,102106.48
2023-09-03T09:25:48.588Z,102103.45
2023-09-03T09:26:51.492Z,102105.52
2023-09-03T09:27:55.821Z,102107.64
2023-09-03T09:29:00.551Z,102109.61
2023-09-03T09:30:11.988Z,102104.69
2023-09-03T09:31:17.005Z,102101.77
2023-09-03T09:32:22.895Z,102100.15
2023-09-03T09:33:27.477Z,102097.33
2023-09-03T09:34:42.961Z,102099.27
2023-09-03T09:35:45.798Z,102101.30
2023-09-03T09:36:57.704Z,102105.67
2023-09-03T09:38:08.109Z,102110.54
2023-09-03T09:39:11.031Z,102112.33
2023-09-03T09:40:15.292Z,102116.11
2023-09-03T09:41:28.446Z,102117.63
2023-09-03T09:42:31.503Z,102121.08
2023-09-03T09:43:47.701Z,102124.27
2023-09-03T09:44:53.546Z,102121.10
2023-09-03T09:45:56.895Z,102123.59
2023-09-03T09:47:23.157Z,102124.61
2023-09-03T09:48:29.926Z,102123.73
2023-09-03T09:49:56.724Z,102122.25
2023-09-03T09:51:01.682Z,102125.95
2023-09-03T09:52:06.981Z,102124.48
2023-09-03T09:53:25.694Z,102127.23
2023-09-03T09:54:42.704Z,102125.08
2023-09-03T09:55:46.343Z,102128.77
2023-09-03T09:56:51.782Z,102129.48
2023-09-03T09:57:57.257Z,102132.40
2023-09-03T10:00:45.145Z,102135.31
2023-09-03T10:01:53.535Z,102134.70
2023-09-03T10:02:59.685Z,102138.04
2023-09-03T10:04:05.226Z,102140.70
2023-09-03T10:05:11.484Z,102142.16
2023-09-03T10:06:22.898Z,102143.94
2023-09-03T10:07:27.022Z,102148.40
2023-09-03T10:08:32.468Z,102145.56
2023-09-03T10:09:42.135Z,102149.89
2023-09-03T10:10:46.764Z,102150.05
2023-09-03T10:11:51.505Z,102148.27
2023-09-03T10:12:54.926Z,102147.55
2023-09-03T10:13:57.840Z,102147.27
2023-09-03T10:15:02.095Z,102142.52
2023-09-03T10:16:09.646Z,102141.48
2023-09-03T10:17:16.957Z,102144.30
2023-09-03T10:18:21.853Z,102141.79
2023-09-03T10:19:30.396Z,102139.64
2023-09-03T10:20:35.049Z,102137.48
2023-09-03T10:21:52.602Z,102144.82
2023-09-03T10:22:59.275Z,102143.13
2023-09-03T10:24:07.003Z,102144.52
2023-09-03T10:25:15.565Z,102142.80
2023-09-03T10:26:27.544Z,102139.89
2023-09-03T10:27:36.507Z,102139.97
2023-09-03T10:28:43.235Z,102142.23
2023-09-03T10:29:48.588Z,102137.35
2023-09-03T10:30:55.394Z,102140.85
2023-09-03T10:32:04.106Z,102141.93
2023-09-03T10:33:10.257Z,102136.75
2023-09-03T10:34:16.130Z,102140.80
2023-09-03T10:35:19.356Z,102139.77
2023-09-03T10:36:23.413Z,102135.83
2023-09-03T10:37:40.573Z,102141.25
2023-09-03T10:38:45.968Z,102141.32
2023-09-03T10:39:49.151Z,102141.88
2023-09-03T10:41:18.204Z,102138.16
2023-09-03T10:42:25.157Z,102137.61
2023-09-03T10:43:28.221Z,102136.02
2023-09-03T10:44:34.421Z,102131.85
2023-09-03T10:45:37.401Z,102130.02
2023-09-03T10:47:00.078Z,102132.97
2023-09-03T10:48:05.801Z,102136.73
2023-09-03T10:49:08.808Z,102140.14
2023-09-03T10:50:12.260Z,102136.92
2023-09-03T10:51:36.612Z,102131.66
2023-09-03T10:52:41.243Z,102138.73
2023-09-03T10:53:44.351Z,102133.15
2023-09-03T10:55:07.267Z,102133.59
2023-09-03T10:56:18.572Z,102138.25
2023-09-03T10:57:21.795Z,102139.13
2023-09-03T10:58:31.782Z,102139.73
2023-09-03T10:59:54.423Z,102142.54
2023-09-03T11:01:27.905Z,102140.30
2023-09-03T11:02:31.017Z,102142.70
2023-09-03T11:03:47.697Z,102136.19
2023-09-03T11:05:20.783Z,102128.57
2023-09-03T11:06:26.000Z,102130.98
2023-09-03T11:07:28.888Z,102133.40
2023-09-03T11:08:32.777Z,102134.17
2023-09-03T11:09:35.768Z,102134.06
2023-09-03T11:10:39.931Z,102130.05
2023-09-03T11:11:42.876Z,102129.00
2023-09-03T11:12:47.344Z,102130.36
2023-09-03T11:13:51.420Z,102126.08
2023-09-03T11:14:56.000Z,102127.27
2023-09-03T11:15:58.978Z,102128.42
2023-09-03T11:17:09.457Z,102127.68
2023-09-03T11:18:12.408Z,102129.52
2023-09-03T11:19:15.284Z,102128.79
2023-09-03T11:20:49.321Z,102126.04
2023-09-03T11:21:53.580Z,102129.59
2023-09-03T11:22:56.672Z,102127.50
2023-09-03T11:24:06.696Z,102128.80
2023-09-03T11:25:09.671Z,102128.95
2023-09-03T11:26:15.625Z,102129.53
2023-09-03T11:27:18.674Z,102134.14
2023-09-03T11:28:21.530Z,102128.48
2023-09-03T11:29:26.108Z,102128.70
2023-09-03T11:30:30.406Z,102124.66
2023-09-03T11:31:47.329Z,102128.89
2023-09-03T11:32:50.241Z,102133.44
2023-09-03T11:33:53.496Z,102132.08
2023-09-03T11:35:00.904Z,102136.34
2023-09-03T11:36:04.492Z,102137.33
2023-09-03T11:37:07.684Z,102139.67
2023-09-03T11:38:11.757Z,102145.73
2023-09-03T11:39:18.369Z,102141.96
2023-09-03T11:40:30.052Z,102149.33
2023-09-03T11:41:33.108Z,102153.61
2023-09-03T11:42:36.265Z,102154.17
2023-09-03T11:43:40.179Z,102154.83
2023-09-03T11:44:43.211Z,102147.47
2023-09-03T11:45:47.030Z,102147.30
2023-09-03T11:47:00.235Z,102151.02
2023-09-03T11:48:07.457Z,102151.94
2023-09-03T11:49:10.464Z,102154.67
2023-09-03T11:50:15.104Z,102156.58
2023-09-03T11:51:27.843Z,102154.39
2023-09-03T11:52:31.938Z,102155.50
2023-09-03T11:53:44.294Z,102160.36
2023-09-03T11:54:47.260Z,102165.00
2023-09-03T11:55:54.070Z,102163.77
2023-09-03T11:57:00.698Z,102166.14
2023-09-03T11:58:07.409Z,102164.52
2023-09-03T11:59:11.193Z,102170.17
2023-09-03T12:00:16.047Z,102168.80
2023-09-03T12:01:19.429Z,102165.01
2023-09-03T12:02:23.153Z,102169.45
2023-09-03T12:03:26.550Z,102168.98
2023-09-03T12:04:32.895Z,102168.41
2023-09-03T12:05:36.933Z,102165.95
2023-09-03T12:06:41.708Z,102167.89
2023-09-03T12:07:44.825Z,102171.10
2023-09-03T12:08:47.647Z,102173.30
2023-09-03T12:09:53.481Z,102171.75
2023-09-03T12:10:56.400Z,102174.08
2023-09-03T12:11:59.292Z,102176.71
2023-09-03T12:13:03.521Z,102178.55
2023-09-03T12:14:12.703Z,102175.58
2023-09-03T12:15:22.682Z,102173.58
2023-09-03T12:16:26.347Z,102179.16
2023-09-03T12:17:29.855Z,102185.38
2023-09-03T12:18:33.414Z,102181.60
2023-09-03T12:19:43.383Z,102185.47
2023-09-03T12:20:46.985Z,102183.86
2023-09-03T12:21:53.517Z,102179.76
2023-09-03T12:22:56.481Z,102179.90
2023-09-03T12:23:59.419Z,102180.44
2023-09-03T12:25:06.523Z,102183.53
2023-09-03T12:26:16.789Z,102184.90
2023-09-03T12:27:19.761Z,102187.42
2023-09-03T12:28:38.963Z,102183.02
2023-09-03T12:29:52.285Z,102183.16